Time;durP1;ratioP1;P1;durP2;ratioP2;P2;SDS_P1;SDS_P2;PMS_P1;PMS_P2;Temp;Humidity;BMP_temperature;BMP_pressure;BME280_temperature;BME280_humidity;BME280_pressure;Samples;Min_cycle;Max_cycle;Signal;HPM_P1;HPM_P2
2021/06/11 00:04:18;;;;;;;7.67;4.10;;;;;;;;;;10532677;28;20245;-70
2021/06/11 00:09:20;;;;;;;7.67;4.13;;;;;;;;;;10532337;28;20227;-70
2021/06/11 00:14:24;;;;;;;6.83;4.07;;;;;;;;;;10534206;28;20215;-71
2021/06/11 00:19:26;;;;;;;8.57;4.67;;;;;;;;;;10533209;28;20283;-71
2021/06/11 00:24:28;;;;;;;8.93;4.83;;;;;;;;;;10525574;28;20223;-69
2021/06/11 00:29:31;;;;;;;7.87;4.83;;;;;;;;;;10532167;28;20226;-70
2021/06/11 00:34:33;;;;;;;8.03;4.80;;;;;;;;;;10530132;28;20206;-70
2021/06/11 00:39:35;;;;;;;8.87;5.00;;;;;;;;;;10531065;28;20674;-71
2021/06/11 00:44:39;;;;;;;9.53;5.37;;;;;;;;;;10532567;28;20226;-68
2021/06/11 00:49:41;;;;;;;9.37;5.10;;;;;;;;;;10523654;28;20207;-69
2021/06/11 00:54:43;;;;;;;10.13;5.70;;;;;;;;;;10527501;28;20284;-68
2021/06/11 00:59:46;;;;;;;8.73;5.20;;;;;;;;;;10533021;28;20318;-70
2021/06/11 01:04:48;;;;;;;10.90;5.80;;;;;;;;;;10525185;28;20583;-69
2021/06/11 01:09:51;;;;;;;8.87;4.80;;;;;;;;;;10524776;28;20188;-70
2021/06/11 01:14:55;;;;;;;9.03;5.23;;;;;;;;;;10525106;28;20238;-69
2021/06/11 01:19:57;;;;;;;8.27;5.00;;;;;;;;;;10527077;28;20208;-69
2021/06/11 01:25:04;;;;;;;7.90;4.80;;;;;;;;;;10530767;28;20222;-69
2021/06/11 01:30:09;;;;;;;8.97;5.10;;;;;;;;;;10522331;28;20560;-69
2021/06/11 01:35:19;;;;;;;7.50;4.63;;;;;;;;;;10541775;28;20223;-70
2021/06/11 01:40:22;;;;;;;8.20;4.63;;;;;;;;;;10531630;28;20230;-70
2021/06/11 01:45:25;;;;;;;9.37;5.10;;;;;;;;;;10547674;28;20216;-68
2021/06/11 01:50:29;;;;;;;9.60;4.87;;;;;;;;;;10524043;28;20211;-67
2021/06/11 01:55:32;;;;;;;7.83;5.00;;;;;;;;;;10528664;28;20223;-69
2021/06/11 02:00:36;;;;;;;8.17;4.73;;;;;;;;;;10528422;28;20223;-66
2021/06/11 02:05:38;;;;;;;8.20;4.90;;;;;;;;;;10526634;28;20713;-70
2021/06/11 02:10:41;;;;;;;7.80;4.70;;;;;;;;;;10527395;28;20187;-67
2021/06/11 02:15:45;;;;;;;7.70;4.40;;;;;;;;;;10522429;28;20219;-68
2021/06/11 02:20:47;;;;;;;7.67;4.50;;;;;;;;;;10526348;28;20219;-69
2021/06/11 02:25:49;;;;;;;9.23;5.00;;;;;;;;;;10530498;28;20235;-71
2021/06/11 02:30:52;;;;;;;8.07;4.53;;;;;;;;;;10525463;28;20267;-70
2021/06/11 02:35:55;;;;;;;7.70;4.57;;;;;;;;;;10528988;28;20207;-68
2021/06/11 02:40:58;;;;;;;7.87;4.57;;;;;;;;;;10526545;28;20207;-68
2021/06/11 02:46:05;;;;;;;8.83;5.10;;;;;;;;;;10528727;28;20212;-69
2021/06/11 02:51:20;;;;;;;9.13;5.20;;;;;;;;;;10524100;28;20260;-70
2021/06/11 02:56:23;;;;;;;9.43;5.37;;;;;;;;;;10532498;28;20665;-69
2021/06/11 03:01:27;;;;;;;8.83;5.23;;;;;;;;;;10538349;28;20214;-70
2021/06/11 03:06:30;;;;;;;9.03;5.27;;;;;;;;;;10529944;28;20208;-69
2021/06/11 03:11:38;;;;;;;9.37;5.07;;;;;;;;;;10535827;28;20668;-70
2021/06/11 03:16:43;;;;;;;9.20;5.77;;;;;;;;;;10531426;28;20214;-69
2021/06/11 03:21:48;;;;;;;9.43;5.73;;;;;;;;;;10532431;28;20745;-68
2021/06/11 03:26:52;;;;;;;9.67;5.80;;;;;;;;;;10532643;28;20216;-68
2021/06/11 03:31:57;;;;;;;10.03;5.60;;;;;;;;;;10535248;28;20289;-68
2021/06/11 03:37:03;;;;;;;10.53;5.70;;;;;;;;;;10532583;28;20252;-69
2021/06/11 03:42:05;;;;;;;10.33;5.70;;;;;;;;;;10532962;28;20686;-68
2021/06/11 03:47:10;;;;;;;9.33;5.73;;;;;;;;;;10534769;28;20306;-68
2021/06/11 03:52:12;;;;;;;8.90;5.27;;;;;;;;;;10534513;28;20683;-69
2021/06/11 03:57:15;;;;;;;9.70;5.80;;;;;;;;;;10535306;28;20294;-68
2021/06/11 04:02:19;;;;;;;10.27;5.63;;;;;;;;;;10544870;28;20235;-68
2021/06/11 04:07:23;;;;;;;12.77;5.70;;;;;;;;;;10531128;28;20211;-68
2021/06/11 04:12:27;;;;;;;9.27;5.43;;;;;;;;;;10532206;28;20222;-68
2021/06/11 04:17:53;;;;;;;8.50;5.30;;;;;;;;;;10525940;28;20671;-69
2021/06/11 04:22:59;;;;;;;7.90;5.13;;;;;;;;;;10530464;28;20211;-68
2021/06/11 04:28:03;;;;;;;9.60;5.60;;;;;;;;;;10531762;28;20286;-70
2021/06/11 04:33:19;;;;;;;9.63;5.57;;;;;;;;;;10525301;28;20211;-70
2021/06/11 04:38:22;;;;;;;9.60;5.50;;;;;;;;;;10531832;28;20247;-70
2021/06/11 04:43:24;;;;;;;8.83;5.60;;;;;;;;;;10527861;28;20268;-69
2021/06/11 04:48:28;;;;;;;10.70;5.77;;;;;;;;;;10530721;28;20211;-70
2021/06/11 04:53:30;;;;;;;9.57;5.90;;;;;;;;;;10528358;28;20192;-70
2021/06/11 04:58:32;;;;;;;9.27;5.67;;;;;;;;;;10531930;28;20286;-69
2021/06/11 05:03:35;;;;;;;9.93;5.90;;;;;;;;;;10532730;28;20323;-70
2021/06/11 05:08:37;;;;;;;10.67;6.10;;;;;;;;;;10530058;28;20311;-70
2021/06/11 05:13:39;;;;;;;9.50;5.47;;;;;;;;;;10527273;28;20253;-70
2021/06/11 05:18:43;;;;;;;12.00;5.90;;;;;;;;;;10530957;28;20230;-70
2021/06/11 05:23:45;;;;;;;9.53;5.27;;;;;;;;;;10524863;28;20228;-69
2021/06/11 05:28:47;;;;;;;11.33;5.70;;;;;;;;;;10531642;28;20252;-70
2021/06/11 05:33:51;;;;;;;12.67;5.90;;;;;;;;;;10529044;28;20188;-71
2021/06/11 05:38:53;;;;;;;9.30;5.43;;;;;;;;;;10527247;28;20271;-69
2021/06/11 05:43:55;;;;;;;9.90;5.43;;;;;;;;;;10522402;28;20212;-70
2021/06/11 05:49:02;;;;;;;9.20;5.57;;;;;;;;;;10527932;28;20280;-70
2021/06/11 05:54:04;;;;;;;9.40;5.73;;;;;;;;;;10530760;28;20266;-69
2021/06/11 05:59:07;;;;;;;8.97;5.47;;;;;;;;;;10526224;28;20286;-69
2021/06/11 06:04:10;;;;;;;9.50;5.60;;;;;;;;;;10527245;28;20222;-69
2021/06/11 06:09:12;;;;;;;8.73;5.50;;;;;;;;;;10529187;28;20567;-69
2021/06/11 06:14:14;;;;;;;9.17;6.00;;;;;;;;;;10527769;28;20229;-69
2021/06/11 06:19:18;;;;;;;9.83;5.80;;;;;;;;;;10518834;28;20305;-71
2021/06/11 06:24:21;;;;;;;9.33;5.10;;;;;;;;;;10524783;28;20212;-69
2021/06/11 06:29:23;;;;;;;10.77;6.00;;;;;;;;;;10518707;28;20219;-71
2021/06/11 06:34:26;;;;;;;10.17;6.03;;;;;;;;;;10534628;28;20202;-71
2021/06/11 06:39:28;;;;;;;9.10;5.57;;;;;;;;;;10529164;28;20235;-71
2021/06/11 06:44:30;;;;;;;7.77;5.07;;;;;;;;;;10533030;28;20219;-68
2021/06/11 06:49:34;;;;;;;9.07;5.40;;;;;;;;;;10531025;28;20199;-69
2021/06/11 06:54:36;;;;;;;11.60;5.70;;;;;;;;;;10520563;28;20184;-69
2021/06/11 06:59:38;;;;;;;7.17;3.90;;;;;;;;;;10535478;28;20391;-69
2021/06/11 07:04:41;;;;;;;8.00;4.43;;;;;;;;;;10520931;28;20216;-69
2021/06/11 07:09:43;;;;;;;9.13;4.30;;;;;;;;;;10523586;28;20192;-70
2021/06/11 07:14:46;;;;;;;6.93;4.37;;;;;;;;;;10529530;28;20564;-70
2021/06/11 07:19:49;;;;;;;9.00;4.83;;;;;;;;;;10533066;28;20274;-69
2021/06/11 07:24:51;;;;;;;8.40;4.30;;;;;;;;;;10529586;28;20220;-68
2021/06/11 07:29:53;;;;;;;8.27;4.70;;;;;;;;;;10523801;28;20200;-69
2021/06/11 07:34:57;;;;;;;7.80;4.63;;;;;;;;;;10528344;28;20633;-69
2021/06/11 07:39:59;;;;;;;7.93;4.57;;;;;;;;;;10530620;28;20240;-69
2021/06/11 07:45:01;;;;;;;6.57;4.00;;;;;;;;;;10536908;28;20321;-70
2021/06/11 07:50:06;;;;;;;8.20;4.67;;;;;;;;;;10536022;28;20257;-68
2021/06/11 07:55:08;;;;;;;7.32;4.30;;;;;;;;;;10530672;28;20227;-69
2021/06/11 08:00:11;;;;;;;7.28;4.45;;;;;;;;;;10528696;28;20196;-69
2021/06/11 08:05:29;;;;;;;8.30;4.80;;;;;;;;;;10536682;28;20459;-70
2021/06/11 08:10:31;;;;;;;7.07;3.95;;;;;;;;;;10531223;28;20196;-70
2021/06/11 08:15:34;;;;;;;6.78;4.03;;;;;;;;;;10526663;28;20228;-71
2021/06/11 08:20:38;;;;;;;5.95;3.75;;;;;;;;;;10529698;28;20292;-71
2021/06/11 08:25:40;;;;;;;6.70;4.60;;;;;;;;;;10526321;28;20215;-71
2021/06/11 08:30:42;;;;;;;8.82;6.45;;;;;;;;;;10528671;28;20265;-71
2021/06/11 08:35:48;;;;;;;6.65;4.40;;;;;;;;;;10532261;28;20279;-70
2021/06/11 08:40:51;;;;;;;6.47;4.32;;;;;;;;;;10531247;28;20212;-71
2021/06/11 08:45:53;;;;;;;6.80;4.30;;;;;;;;;;10529695;28;20208;-70
2021/06/11 08:50:56;;;;;;;6.32;4.55;;;;;;;;;;10528960;28;20263;-71
2021/06/11 08:55:58;;;;;;;7.38;5.18;;;;;;;;;;10529981;28;20502;-70
2021/06/11 09:01:00;;;;;;;7.15;5.22;;;;;;;;;;10530435;28;20231;-71
2021/06/11 09:06:12;;;;;;;5.88;4.13;;;;;;;;;;10534659;28;20207;-70
2021/06/11 09:11:16;;;;;;;5.07;4.13;;;;;;;;;;10528758;28;20201;-72
2021/06/11 09:16:19;;;;;;;4.68;3.72;;;;;;;;;;10529334;28;20219;-71
2021/06/11 09:21:30;;;;;;;7.60;4.22;;;;;;;;;;10530304;28;20211;-68
2021/06/11 09:26:32;;;;;;;5.00;4.07;;;;;;;;;;10525073;28;20613;-67
2021/06/11 09:31:34;;;;;;;4.40;3.95;;;;;;;;;;10519310;28;20612;-68
2021/06/11 09:36:38;;;;;;;4.60;3.65;;;;;;;;;;10528760;28;20210;-69
2021/06/11 09:42:00;;;;;;;5.28;3.92;;;;;;;;;;10525416;28;20215;-70
2021/06/11 09:47:03;;;;;;;6.13;4.47;;;;;;;;;;10524489;28;20213;-72
2021/06/11 09:52:08;;;;;;;5.75;4.70;;;;;;;;;;10541443;28;20195;-68
2021/06/11 09:57:23;;;;;;;6.13;4.97;;;;;;;;;;10525017;28;20210;-69
2021/06/11 10:02:25;;;;;;;4.72;3.92;;;;;;;;;;10521449;28;20279;-69
2021/06/11 10:07:29;;;;;;;6.97;4.18;;;;;;;;;;10526660;28;20245;-71
2021/06/11 10:12:33;;;;;;;4.82;4.05;;;;;;;;;;10524570;28;20195;-70
2021/06/11 10:17:35;;;;;;;6.88;4.32;;;;;;;;;;10524817;28;20248;-70
2021/06/11 10:22:38;;;;;;;6.32;4.47;;;;;;;;;;10530404;28;20204;-69
2021/06/11 10:27:41;;;;;;;6.15;4.20;;;;;;;;;;10516521;28;20223;-69
2021/06/11 10:32:45;;;;;;;5.45;3.88;;;;;;;;;;10507549;28;20586;-68
2021/06/11 10:37:49;;;;;;;6.05;4.40;;;;;;;;;;10513839;28;20204;-68
2021/06/11 10:42:51;;;;;;;5.40;3.95;;;;;;;;;;10504743;28;20214;-69
2021/06/11 10:47:55;;;;;;;7.05;4.40;;;;;;;;;;10519474;28;20253;-69
2021/06/11 10:53:07;;;;;;;6.00;4.30;;;;;;;;;;10522984;28;20629;-68
2021/06/11 10:58:19;;;;;;;10.20;8.18;;;;;;;;;;10525787;28;20224;-70
2021/06/11 11:03:31;;;;;;;5.68;3.80;;;;;;;;;;10519655;28;20298;-68
2021/06/11 11:08:51;;;;;;;6.40;4.80;;;;;;;;;;10529156;28;20226;-69
2021/06/11 11:13:53;;;;;;;5.97;4.40;;;;;;;;;;10527379;28;20199;-70
2021/06/11 11:18:55;;;;;;;7.63;4.90;;;;;;;;;;10530708;28;20568;-69
2021/06/11 11:24:00;;;;;;;6.30;3.80;;;;;;;;;;10527012;28;20207;-70
2021/06/11 11:29:02;;;;;;;8.15;6.93;;;;;;;;;;10515540;28;20698;-70
2021/06/11 11:34:05;;;;;;;4.97;3.67;;;;;;;;;;10522218;28;20191;-68
2021/06/11 11:39:10;;;;;;;5.05;3.58;;;;;;;;;;10515101;28;20718;-70
2021/06/11 11:44:12;;;;;;;4.28;3.60;;;;;;;;;;10525301;28;20703;-70
2021/06/11 11:49:25;;;;;;;5.15;3.63;;;;;;;;;;10536814;28;20220;-70
2021/06/11 11:54:29;;;;;;;4.95;4.03;;;;;;;;;;10529587;28;20370;-72
2021/06/11 11:59:31;;;;;;;5.53;3.60;;;;;;;;;;10528045;28;20210;-72
2021/06/11 12:04:33;;;;;;;3.63;2.97;;;;;;;;;;10533690;28;20204;-69
2021/06/11 12:09:37;;;;;;;6.35;3.22;;;;;;;;;;10528465;28;20282;-70
2021/06/11 12:14:39;;;;;;;5.22;3.20;;;;;;;;;;10533466;28;20196;-69
2021/06/11 12:19:41;;;;;;;6.82;5.38;;;;;;;;;;10529180;28;20525;-69
2021/06/11 12:24:44;;;;;;;3.67;3.15;;;;;;;;;;10525103;28;20247;-69
2021/06/11 12:29:47;;;;;;;5.25;3.50;;;;;;;;;;10528796;28;20231;-69
2021/06/11 12:34:49;;;;;;;4.45;3.30;;;;;;;;;;10531080;28;20196;-70
2021/06/11 12:39:54;;;;;;;6.00;4.25;;;;;;;;;;10529544;28;20219;-70
2021/06/11 12:44:57;;;;;;;4.50;3.28;;;;;;;;;;10527639;28;20304;-70
2021/06/11 12:49:59;;;;;;;5.30;3.25;;;;;;;;;;10536435;28;20215;-70
2021/06/11 12:55:02;;;;;;;4.35;2.80;;;;;;;;;;10529191;28;20215;-69
2021/06/11 13:00:05;;;;;;;3.50;3.00;;;;;;;;;;10526079;28;20199;-70
2021/06/11 13:05:08;;;;;;;7.70;4.45;;;;;;;;;;10529329;28;20215;-70
2021/06/11 13:10:11;;;;;;;5.70;3.65;;;;;;;;;;10522743;28;20184;-70
2021/06/11 13:15:14;;;;;;;5.53;3.42;;;;;;;;;;10529744;28;20243;-68
2021/06/11 13:20:16;;;;;;;7.00;4.35;;;;;;;;;;10523802;28;20282;-70
2021/06/11 13:25:19;;;;;;;5.47;3.40;;;;;;;;;;10523915;28;20291;-70
2021/06/11 13:30:22;;;;;;;5.50;3.78;;;;;;;;;;10525857;28;20191;-69
2021/06/11 13:35:24;;;;;;;6.75;3.92;;;;;;;;;;10526396;28;20235;-69
2021/06/11 13:40:28;;;;;;;5.05;3.47;;;;;;;;;;10530656;28;20219;-69
2021/06/11 13:45:30;;;;;;;7.47;4.10;;;;;;;;;;10525292;28;20291;-68
2021/06/11 13:50:32;;;;;;;5.35;3.65;;;;;;;;;;10530878;28;20243;-69
2021/06/11 13:55:36;;;;;;;6.35;4.63;;;;;;;;;;10529570;28;20212;-68
2021/06/11 14:00:38;;;;;;;4.97;3.03;;;;;;;;;;10521126;28;20191;-68
2021/06/11 14:05:40;;;;;;;6.72;4.60;;;;;;;;;;10529001;28;20717;-68
2021/06/11 14:10:43;;;;;;;5.10;3.30;;;;;;;;;;10523599;28;20643;-69
2021/06/11 14:15:45;;;;;;;4.90;3.30;;;;;;;;;;10528980;28;20655;-69
2021/06/11 14:20:48;;;;;;;5.93;3.50;;;;;;;;;;10527681;28;20268;-69
2021/06/11 14:25:51;;;;;;;4.07;2.85;;;;;;;;;;10525079;28;20219;-69
2021/06/11 14:30:53;;;;;;;7.15;3.30;;;;;;;;;;10528963;28;20218;-68
2021/06/11 14:35:56;;;;;;;5.63;3.45;;;;;;;;;;10517616;28;20225;-69
2021/06/11 14:40:59;;;;;;;5.85;3.85;;;;;;;;;;10530548;28;20190;-69
2021/06/11 14:46:01;;;;;;;5.03;3.30;;;;;;;;;;10525701;28;20809;-70
2021/06/11 14:51:04;;;;;;;4.90;3.35;;;;;;;;;;10533968;28;20191;-70
2021/06/11 14:56:12;;;;;;;5.82;3.75;;;;;;;;;;10554091;28;20214;-70
2021/06/11 15:01:15;;;;;;;6.75;3.67;;;;;;;;;;10533966;28;20203;-68
2021/06/11 15:06:17;;;;;;;6.93;3.75;;;;;;;;;;10530884;28;20228;-68
2021/06/11 15:11:22;;;;;;;7.57;4.60;;;;;;;;;;10532331;28;20566;-71
2021/06/11 15:16:24;;;;;;;7.13;4.40;;;;;;;;;;10533839;28;20231;-69
2021/06/11 15:21:27;;;;;;;6.60;3.42;;;;;;;;;;10533646;28;20203;-69
2021/06/11 15:26:30;;;;;;;5.90;3.65;;;;;;;;;;10533158;28;20223;-68
2021/06/11 15:31:32;;;;;;;6.15;3.55;;;;;;;;;;10533196;28;20205;-68
2021/06/11 15:36:34;;;;;;;5.65;3.65;;;;;;;;;;10530735;28;20291;-69
2021/06/11 15:41:37;;;;;;;5.00;3.35;;;;;;;;;;10528388;28;20229;-68
2021/06/11 15:46:39;;;;;;;7.30;3.92;;;;;;;;;;10533485;28;20310;-68
2021/06/11 15:51:42;;;;;;;6.22;3.90;;;;;;;;;;10525247;28;20222;-69
2021/06/11 15:56:45;;;;;;;6.63;4.28;;;;;;;;;;10522932;28;20220;-68
2021/06/11 16:01:47;;;;;;;6.65;3.92;;;;;;;;;;10530678;28;20662;-68
2021/06/11 16:06:54;;;;;;;6.18;3.90;;;;;;;;;;10532194;28;20322;-68
2021/06/11 16:11:58;;;;;;;7.35;4.90;;;;;;;;;;10530279;28;20271;-68
2021/06/11 16:17:00;;;;;;;7.35;4.03;;;;;;;;;;10532910;28;20225;-68
2021/06/11 16:22:03;;;;;;;7.07;4.50;;;;;;;;;;10530937;28;20218;-68
2021/06/11 16:27:07;;;;;;;7.90;4.32;;;;;;;;;;10530165;28;20215;-69
2021/06/11 16:32:09;;;;;;;9.55;5.13;;;;;;;;;;10531924;28;20245;-69
2021/06/11 16:37:13;;;;;;;7.20;4.00;;;;;;;;;;10530549;28;20241;-68
2021/06/11 16:42:16;;;;;;;7.22;3.88;;;;;;;;;;10527640;28;20731;-69
2021/06/11 16:47:18;;;;;;;7.35;4.63;;;;;;;;;;10531074;28;20756;-70
2021/06/11 16:52:21;;;;;;;7.03;4.25;;;;;;;;;;10528019;28;20278;-68
2021/06/11 16:57:24;;;;;;;7.40;4.28;;;;;;;;;;10532236;28;20227;-68
2021/06/11 17:02:28;;;;;;;6.65;4.25;;;;;;;;;;10527765;28;20237;-69
2021/06/11 17:07:30;;;;;;;6.80;4.07;;;;;;;;;;10524588;28;20220;-69
2021/06/11 17:12:33;;;;;;;6.15;4.07;;;;;;;;;;10529799;28;20688;-69
2021/06/11 17:17:36;;;;;;;7.60;4.57;;;;;;;;;;10526175;28;20226;-68
2021/06/11 17:22:44;;;;;;;6.85;4.00;;;;;;;;;;10526962;28;20215;-69
2021/06/11 17:27:47;;;;;;;7.28;4.07;;;;;;;;;;10529009;28;20738;-68
2021/06/11 17:32:49;;;;;;;6.20;3.88;;;;;;;;;;10521656;28;20626;-68
2021/06/11 17:37:57;;;;;;;7.65;3.90;;;;;;;;;;10529202;28;20220;-68
2021/06/11 17:43:01;;;;;;;6.82;4.10;;;;;;;;;;10525235;28;20220;-69
2021/06/11 17:48:05;;;;;;;8.10;4.10;;;;;;;;;;10528125;28;20699;-68
2021/06/11 17:53:12;;;;;;;9.18;5.03;;;;;;;;;;10520549;28;20258;-70
2021/06/11 17:58:16;;;;;;;9.25;5.70;;;;;;;;;;10542663;28;20246;-69
2021/06/11 18:03:19;;;;;;;6.82;4.60;;;;;;;;;;10528416;28;20205;-69
2021/06/11 18:08:22;;;;;;;8.27;5.60;;;;;;;;;;10518471;28;20219;-69
2021/06/11 18:13:27;;;;;;;7.78;4.90;;;;;;;;;;10529464;28;20276;-69
2021/06/11 18:18:29;;;;;;;13.02;10.23;;;;;;;;;;10523197;28;20235;-67
2021/06/11 18:23:31;;;;;;;8.65;6.25;;;;;;;;;;10518626;28;20203;-69
2021/06/11 18:28:34;;;;;;;7.40;4.68;;;;;;;;;;10527695;28;20677;-67
2021/06/11 18:33:37;;;;;;;10.93;7.63;;;;;;;;;;10528060;28;20218;-69
2021/06/11 18:38:46;;;;;;;7.63;4.80;;;;;;;;;;10522871;28;20208;-69
2021/06/11 18:43:53;;;;;;;8.07;5.38;;;;;;;;;;10520184;28;20213;-68
2021/06/11 18:48:56;;;;;;;9.57;5.50;;;;;;;;;;10524663;28;20594;-68
2021/06/11 18:53:59;;;;;;;10.37;7.00;;;;;;;;;;10521390;28;20184;-69
2021/06/11 18:59:13;;;;;;;11.30;7.23;;;;;;;;;;10526755;28;20543;-68
2021/06/11 19:04:17;;;;;;;9.93;6.80;;;;;;;;;;10515407;28;20719;-68
2021/06/11 19:09:19;;;;;;;9.13;5.27;;;;;;;;;;10519759;28;20223;-69
2021/06/11 19:14:26;;;;;;;11.80;7.27;;;;;;;;;;10526817;28;20255;-69
2021/06/11 19:19:35;;;;;;;13.33;8.23;;;;;;;;;;10517626;28;20216;-69
2021/06/11 19:24:41;;;;;;;9.97;6.60;;;;;;;;;;10514671;28;20286;-69
2021/06/11 19:29:45;;;;;;;10.80;6.67;;;;;;;;;;10526076;28;20683;-68
2021/06/11 19:34:54;;;;;;;18.93;12.57;;;;;;;;;;10525740;28;20274;-69
2021/06/11 19:39:57;;;;;;;14.67;9.90;;;;;;;;;;10535684;28;20590;-69
2021/06/11 19:45:08;;;;;;;21.33;16.37;;;;;;;;;;10538856;28;20725;-69
2021/06/11 19:50:12;;;;;;;12.47;8.53;;;;;;;;;;10530582;28;20197;-68
2021/06/11 19:55:27;;;;;;;9.07;6.37;;;;;;;;;;10534820;28;20608;-68
2021/06/11 20:00:31;;;;;;;10.43;6.10;;;;;;;;;;10531493;28;20270;-68
2021/06/11 20:05:34;;;;;;;11.53;7.23;;;;;;;;;;10535305;28;20242;-70
2021/06/11 20:10:37;;;;;;;10.03;7.23;;;;;;;;;;10527274;28;20199;-70
2021/06/11 20:15:40;;;;;;;11.93;7.67;;;;;;;;;;10533463;28;20295;-69
2021/06/11 20:20:44;;;;;;;11.63;7.27;;;;;;;;;;10540927;28;20257;-67
2021/06/11 20:25:46;;;;;;;13.10;8.57;;;;;;;;;;10542596;28;20260;-68
2021/06/11 20:30:50;;;;;;;13.93;9.97;;;;;;;;;;10548680;28;20216;-68
2021/06/11 20:35:52;;;;;;;11.57;7.13;;;;;;;;;;10547320;28;20299;-68
2021/06/11 20:40:55;;;;;;;16.83;9.97;;;;;;;;;;10545330;28;20192;-69
2021/06/11 20:45:58;;;;;;;15.50;10.73;;;;;;;;;;10548654;28;20212;-68
2021/06/11 20:51:00;;;;;;;14.67;9.13;;;;;;;;;;10549147;28;20263;-69
2021/06/11 20:56:22;;;;;;;15.40;11.27;;;;;;;;;;10545153;28;20286;-69
2021/06/11 21:01:26;;;;;;;13.57;8.43;;;;;;;;;;10548599;28;20304;-67
2021/06/11 21:06:29;;;;;;;11.70;7.40;;;;;;;;;;10549585;28;20690;-67
2021/06/11 21:11:31;;;;;;;12.87;7.73;;;;;;;;;;10532664;28;20265;-68
2021/06/11 21:16:35;;;;;;;14.23;9.30;;;;;;;;;;10530858;28;20267;-69
2021/06/11 21:21:37;;;;;;;12.83;7.63;;;;;;;;;;10522151;28;20192;-69
2021/06/11 21:26:39;;;;;;;11.57;7.80;;;;;;;;;;10527054;28;20699;-71
2021/06/11 21:31:43;;;;;;;10.67;7.40;;;;;;;;;;10502094;28;20278;-70
2021/06/11 21:36:45;;;;;;;12.63;8.53;;;;;;;;;;10523766;28;20211;-69
2021/06/11 21:41:48;;;;;;;13.67;8.33;;;;;;;;;;10518339;28;21042;-69
2021/06/11 21:46:52;;;;;;;15.40;9.43;;;;;;;;;;10503758;28;20296;-69
2021/06/11 21:51:54;;;;;;;15.43;10.87;;;;;;;;;;10526968;28;20187;-69
2021/06/11 21:56:57;;;;;;;17.27;12.43;;;;;;;;;;10522420;28;20505;-70
2021/06/11 22:02:01;;;;;;;13.43;9.43;;;;;;;;;;10518762;28;20237;-68
2021/06/11 22:07:04;;;;;;;12.90;9.47;;;;;;;;;;10523239;28;20215;-69
2021/06/11 22:12:06;;;;;;;12.90;7.93;;;;;;;;;;10528972;28;20191;-68
2021/06/11 22:17:10;;;;;;;13.23;9.10;;;;;;;;;;10527022;28;20215;-69
2021/06/11 22:22:12;;;;;;;11.23;7.80;;;;;;;;;;10525321;28;20200;-67
2021/06/11 22:27:14;;;;;;;13.03;8.27;;;;;;;;;;10528431;28;20738;-69
2021/06/11 22:32:17;;;;;;;11.07;7.07;;;;;;;;;;10530382;28;20211;-69
2021/06/11 22:37:20;;;;;;;12.17;8.00;;;;;;;;;;10542703;28;20207;-66
2021/06/11 22:42:22;;;;;;;11.30;7.30;;;;;;;;;;10528089;28;20627;-68
2021/06/11 22:47:25;;;;;;;11.67;7.40;;;;;;;;;;10527778;28;20721;-68
2021/06/11 22:52:28;;;;;;;9.70;6.43;;;;;;;;;;10526066;28;20690;-68
2021/06/11 22:57:30;;;;;;;9.87;6.33;;;;;;;;;;10528634;28;20290;-68
2021/06/11 23:02:34;;;;;;;11.97;6.67;;;;;;;;;;10527155;28;20256;-68
2021/06/11 23:07:36;;;;;;;10.73;6.70;;;;;;;;;;10519556;28;20230;-69
2021/06/11 23:12:38;;;;;;;12.20;7.20;;;;;;;;;;10527383;28;20218;-67
2021/06/11 23:17:41;;;;;;;10.60;6.77;;;;;;;;;;10530775;28;20286;-67
2021/06/11 23:22:44;;;;;;;10.10;6.17;;;;;;;;;;10526762;28;20209;-68
2021/06/11 23:27:46;;;;;;;10.00;6.70;;;;;;;;;;10536826;28;20386;-67
2021/06/11 23:32:49;;;;;;;10.73;6.53;;;;;;;;;;10533704;28;20509;-69
2021/06/11 23:37:51;;;;;;;11.30;7.07;;;;;;;;;;10534807;28;20393;-68
2021/06/11 23:42:55;;;;;;;9.07;6.10;;;;;;;;;;10530647;28;20188;-69
2021/06/11 23:47:58;;;;;;;9.63;6.27;;;;;;;;;;10532719;28;20400;-69
2021/06/11 23:53:01;;;;;;;9.00;6.30;;;;;;;;;;10529386;28;20191;-70
2021/06/11 23:58:03;;;;;;;10.53;6.23;;;;;;;;;;10531013;28;20233;-67
